createdAt,value
2019-03-26T16:54:19.692Z,1024.16
2019-03-26T16:55:19.652Z,1024.15
2019-03-26T16:56:19.799Z,1024.15
2019-03-26T16:57:19.631Z,1024.12
2019-03-26T16:58:19.625Z,1024.16
2019-03-26T16:59:19.619Z,1024.15
2019-03-26T17:00:19.598Z,1024.17
2019-03-26T17:01:19.609Z,1024.18
2019-03-26T17:02:19.577Z,1024.16
2019-03-26T17:03:30.758Z,1024.16
2019-03-26T17:04:20.550Z,1024.21
2019-03-26T17:05:19.545Z,1024.18
2019-03-26T17:06:19.561Z,1024.19
2019-03-26T17:07:19.531Z,1024.20
2019-03-26T17:08:22.546Z,1024.24
2019-03-26T17:09:19.494Z,1024.18
2019-03-26T17:10:19.494Z,1024.17
2019-03-26T17:11:19.511Z,1024.20
2019-03-26T17:12:19.467Z,1024.19
2019-03-26T17:13:19.501Z,1024.18
2019-03-26T17:14:19.530Z,1024.10
2019-03-26T17:15:19.446Z,1024.11
2019-03-26T17:16:19.447Z,1024.09
2019-03-26T17:17:19.406Z,1024.12
2019-03-26T17:18:19.398Z,1024.09
2019-03-26T17:19:19.398Z,1024.14
2019-03-26T17:20:19.373Z,1024.06
2019-03-26T17:21:19.362Z,1024.09
2019-03-26T17:22:19.375Z,1024.10
2019-03-26T17:23:19.385Z,1024.14
2019-03-26T17:24:19.325Z,1024.13
2019-03-26T17:25:19.321Z,1024.17
2019-03-26T17:26:19.311Z,1024.19
2019-03-26T17:27:19.323Z,1024.20
2019-03-26T17:28:19.302Z,1024.20
2019-03-26T17:29:19.270Z,1024.19
2019-03-26T17:30:19.257Z,1024.21
2019-03-26T17:31:19.251Z,1024.17
2019-03-26T17:32:19.265Z,1024.17
2019-03-26T17:33:19.223Z,1024.22
2019-03-26T17:34:19.213Z,1024.17
2019-03-26T17:35:21.723Z,1024.21
2019-03-26T17:36:19.192Z,1024.24
2019-03-26T17:37:19.202Z,1024.24
2019-03-26T17:38:19.169Z,1024.24
2019-03-26T17:39:19.159Z,1024.21
2019-03-26T17:40:19.183Z,1024.22
2019-03-26T17:41:19.147Z,1024.21
2019-03-26T17:42:19.158Z,1024.22
2019-03-26T17:43:19.112Z,1024.20
2019-03-26T17:44:19.114Z,1024.23
2019-03-26T17:45:19.108Z,1024.25
2019-03-26T17:46:19.077Z,1024.30
2019-03-26T17:47:19.091Z,1024.30
2019-03-26T17:48:19.061Z,1024.28
2019-03-26T17:49:19.043Z,1024.28
2019-03-26T17:50:19.033Z,1024.27
2019-03-26T17:51:19.021Z,1024.21
2019-03-26T17:52:19.044Z,1024.26
2019-03-26T17:53:19.009Z,1024.22
2019-03-26T17:54:18.986Z,1024.20
2019-03-26T17:55:18.976Z,1024.23
2019-03-26T17:56:19.012Z,1024.19
2019-03-26T17:57:18.985Z,1024.19
2019-03-26T17:58:18.941Z,1024.22
2019-03-26T17:59:18.930Z,1024.22
2019-03-26T18:00:18.920Z,1024.24
2019-03-26T18:01:18.927Z,1024.22
2019-03-26T18:02:18.899Z,1024.24
2019-03-26T18:03:26.338Z,1024.21
2019-03-26T18:04:19.935Z,1024.24
2019-03-26T18:05:18.863Z,1024.24
2019-03-26T18:06:18.864Z,1024.28
2019-03-26T18:07:18.843Z,1024.25
2019-03-26T18:08:18.971Z,1024.28
2019-03-26T18:09:18.817Z,1024.23
2019-03-26T18:10:18.812Z,1024.26
2019-03-26T18:11:18.795Z,1024.28
2019-03-26T18:12:30.167Z,1024.25
2019-03-26T18:13:19.799Z,1024.25
2019-03-26T18:14:18.761Z,1024.27
2019-03-26T18:15:18.749Z,1024.31
2019-03-26T18:16:18.773Z,1024.32
2019-03-26T18:17:18.733Z,1024.34
2019-03-26T18:18:18.761Z,1024.35
2019-03-26T18:19:18.707Z,1024.30
2019-03-26T18:20:31.592Z,1024.31
2019-03-26T18:21:19.680Z,1024.37
2019-03-26T18:22:18.685Z,1024.30
2019-03-26T18:23:18.702Z,1024.35
2019-03-26T18:24:18.655Z,1024.25
2019-03-26T18:25:18.638Z,1024.34
2019-03-26T18:26:18.642Z,1024.31
2019-03-26T18:27:18.622Z,1024.32
2019-03-26T18:28:18.631Z,1024.39
2019-03-26T18:29:18.599Z,1024.39
2019-03-26T18:30:18.585Z,1024.37
2019-03-26T18:31:18.572Z,1024.40
2019-03-26T18:32:18.562Z,1024.37
2019-03-26T18:33:18.637Z,1024.40
2019-03-26T18:34:18.540Z,1024.38
2019-03-26T18:35:18.527Z,1024.40
2019-03-26T18:36:18.516Z,1024.38
2019-03-26T18:37:18.513Z,1024.41
2019-03-26T18:38:18.516Z,1024.41
2019-03-26T18:39:18.488Z,1024.41
2019-03-26T18:40:18.475Z,1024.39
2019-03-26T18:41:18.457Z,1024.40
2019-03-26T18:42:18.445Z,1024.41
2019-03-26T18:43:18.463Z,1024.42
2019-03-26T18:44:18.424Z,1024.43
2019-03-26T18:45:18.414Z,1024.39
2019-03-26T18:46:18.402Z,1024.44
2019-03-26T18:47:18.410Z,1024.45
2019-03-26T18:48:18.407Z,1024.45
2019-03-26T18:49:18.366Z,1024.44
2019-03-26T18:50:18.362Z,1024.46
2019-03-26T18:51:18.374Z,1024.49
2019-03-26T18:52:18.387Z,1024.45
2019-03-26T18:53:18.347Z,1024.46
2019-03-26T18:54:18.323Z,1024.49
2019-03-26T18:55:18.298Z,1024.43
2019-03-26T18:56:18.289Z,1024.45
2019-03-26T18:57:18.276Z,1024.45
2019-03-26T18:58:18.293Z,1024.43
2019-03-26T18:59:18.292Z,1024.43
2019-03-26T19:00:18.267Z,1024.42
2019-03-26T19:01:18.231Z,1024.44
2019-03-26T19:02:18.222Z,1024.44
2019-03-26T19:03:18.248Z,1024.50
2019-03-26T19:04:18.220Z,1024.52
2019-03-26T19:05:18.185Z,1024.55
2019-03-26T19:06:18.179Z,1024.50
2019-03-26T19:07:18.164Z,1024.48
2019-03-26T19:08:18.179Z,1024.49
2019-03-26T19:09:18.140Z,1024.46
2019-03-26T19:10:18.143Z,1024.47
2019-03-26T19:11:18.120Z,1024.48
2019-03-26T19:12:18.112Z,1024.50
2019-03-26T19:13:20.103Z,1024.52
2019-03-26T19:14:18.084Z,1024.49
2019-03-26T19:15:18.142Z,1024.48
2019-03-26T19:16:18.062Z,1024.52
2019-03-26T19:17:18.049Z,1024.49
2019-03-26T19:18:18.095Z,1024.49
2019-03-26T19:19:18.044Z,1024.46
2019-03-26T19:20:18.017Z,1024.44
2019-03-26T19:21:18.013Z,1024.41
2019-03-26T19:22:18.004Z,1024.45
2019-03-26T19:23:17.987Z,1024.47
2019-03-26T19:24:18.000Z,1024.45
2019-03-26T19:25:17.986Z,1024.49
2019-03-26T19:26:17.955Z,1024.52
2019-03-26T19:27:17.948Z,1024.49
2019-03-26T19:28:17.933Z,1024.47
2019-03-26T19:29:17.939Z,1024.48
2019-03-26T19:30:17.925Z,1024.50
2019-03-26T19:31:17.892Z,1024.51
2019-03-26T19:32:17.890Z,1024.51
2019-03-26T19:33:17.884Z,1024.52
2019-03-26T19:34:17.906Z,1024.54
2019-03-26T19:35:17.846Z,1024.52
2019-03-26T19:36:17.836Z,1024.56
2019-03-26T19:37:17.829Z,1024.52
2019-03-26T19:38:17.814Z,1024.57
2019-03-26T19:39:17.853Z,1024.56
2019-03-26T19:40:17.802Z,1024.57
2019-03-26T19:41:17.788Z,1024.56
2019-03-26T19:42:17.781Z,1024.58
2019-03-26T19:43:17.769Z,1024.57
2019-03-26T19:44:17.773Z,1024.58
2019-03-26T19:45:17.750Z,1024.52
2019-03-26T19:46:17.732Z,1024.56
2019-03-26T19:47:17.715Z,1024.60
2019-03-26T19:48:17.702Z,1024.59
2019-03-26T19:49:17.752Z,1024.64
2019-03-26T19:50:17.678Z,1024.62
2019-03-26T19:51:17.673Z,1024.64
2019-03-26T19:52:17.664Z,1024.68
2019-03-26T19:53:17.643Z,1024.65
2019-03-26T19:54:17.656Z,1024.68
2019-03-26T19:55:17.622Z,1024.69
2019-03-26T19:56:17.614Z,1024.70
2019-03-26T19:57:17.603Z,1024.72
2019-03-26T19:58:17.591Z,1024.70
2019-03-26T19:59:17.605Z,1024.71
2019-03-26T20:00:17.565Z,1024.72
2019-03-26T20:01:17.558Z,1024.74
2019-03-26T20:02:17.547Z,1024.79
2019-03-26T20:03:17.548Z,1024.82
2019-03-26T20:04:17.572Z,1024.82
2019-03-26T20:05:17.508Z,1024.88
2019-03-26T20:06:17.516Z,1024.89
2019-03-26T20:07:17.491Z,1024.91
2019-03-26T20:08:17.475Z,1024.96
2019-03-26T20:09:17.489Z,1024.95
2019-03-26T20:10:17.575Z,1024.95
2019-03-26T20:11:17.461Z,1024.89
2019-03-26T20:12:17.435Z,1024.91
2019-03-26T20:13:24.398Z,1024.95
2019-03-26T20:14:18.475Z,1024.88
2019-03-26T20:15:17.398Z,1024.92
2019-03-26T20:16:17.390Z,1024.93
2019-03-26T20:17:17.373Z,1024.97
2019-03-26T20:18:17.367Z,1024.99
2019-03-26T20:19:17.361Z,1024.97
2019-03-26T20:20:17.375Z,1024.95
2019-03-26T20:21:17.331Z,1024.96
2019-03-26T20:22:17.331Z,1025.01
2019-03-26T20:23:17.305Z,1025.00
2019-03-26T20:24:17.297Z,1024.97
2019-03-26T20:25:17.308Z,1024.98
2019-03-26T20:26:17.299Z,1024.97
2019-03-26T20:27:17.267Z,1024.99
2019-03-26T20:28:17.251Z,1025.03
2019-03-26T20:29:17.239Z,1025.06
2019-03-26T20:30:17.251Z,1025.07
2019-03-26T20:31:17.216Z,1025.11
2019-03-26T20:32:17.220Z,1025.06
2019-03-26T20:33:17.204Z,1025.11
2019-03-26T20:34:17.180Z,1025.09
2019-03-26T20:35:17.195Z,1025.14
2019-03-26T20:36:17.158Z,1025.17
2019-03-26T20:37:17.152Z,1025.17
2019-03-26T20:38:17.140Z,1025.16
2019-03-26T20:39:17.142Z,1025.16
2019-03-26T20:40:17.169Z,1025.17
2019-03-26T20:41:17.107Z,1025.17
2019-03-26T20:42:17.101Z,1025.16
2019-03-26T20:43:17.082Z,1025.17
2019-03-26T20:44:17.072Z,1025.17
2019-03-26T20:45:17.096Z,1025.18
2019-03-26T20:46:17.046Z,1025.16
2019-03-26T20:47:17.035Z,1025.18
2019-03-26T20:48:17.045Z,1025.20
2019-03-26T20:49:17.041Z,1025.18
2019-03-26T20:50:17.025Z,1025.15
2019-03-26T20:51:16.988Z,1025.21
2019-03-26T20:52:16.983Z,1025.17
2019-03-26T20:53:16.987Z,1025.23
2019-03-26T20:54:16.968Z,1025.23
2019-03-26T20:55:16.945Z,1025.25
2019-03-26T20:56:16.965Z,1025.27
2019-03-26T20:57:16.924Z,1025.21
2019-03-26T20:58:16.914Z,1025.24
2019-03-26T20:59:16.906Z,1025.21
2019-03-26T21:00:16.890Z,1025.21
2019-03-26T21:01:16.920Z,1025.17
2019-03-26T21:02:16.867Z,1025.18
2019-03-26T21:03:16.854Z,1025.18
2019-03-26T21:04:16.843Z,1025.13
2019-03-26T21:05:16.851Z,1025.09
2019-03-26T21:06:16.843Z,1025.15
2019-03-26T21:07:16.808Z,1025.14
2019-03-26T21:08:16.800Z,1025.14
2019-03-26T21:09:16.788Z,1025.13
2019-03-26T21:10:16.807Z,1025.10
2019-03-26T21:11:16.787Z,1025.10
2019-03-26T21:12:16.757Z,1025.11
2019-03-26T21:13:16.742Z,1025.09
2019-03-26T21:14:16.730Z,1025.10
2019-03-26T21:15:16.719Z,1025.09
2019-03-26T21:16:16.739Z,1025.11
2019-03-26T21:17:16.724Z,1025.08
2019-03-26T21:18:16.714Z,1025.11
2019-03-26T21:19:16.672Z,1025.14
2019-03-26T21:20:16.662Z,1025.17
2019-03-26T21:21:16.699Z,1025.21
2019-03-26T21:22:16.638Z,1025.18
2019-03-26T21:23:16.633Z,1025.13
2019-03-26T21:24:16.617Z,1025.18
2019-03-26T21:25:16.627Z,1025.17
2019-03-26T21:26:16.627Z,1025.17
2019-03-26T21:27:16.582Z,1025.17
2019-03-26T21:28:16.575Z,1025.14
2019-03-26T21:29:16.559Z,1025.15
2019-03-26T21:30:16.553Z,1025.18
2019-03-26T21:31:16.565Z,1025.15
2019-03-26T21:32:16.542Z,1025.15
2019-03-26T21:33:16.515Z,1025.15
2019-03-26T21:34:29.657Z,1025.14
2019-03-26T21:35:17.500Z,1025.13
2019-03-26T21:36:16.485Z,1025.14
2019-03-26T21:37:16.497Z,1025.11
2019-03-26T21:38:16.463Z,1025.13
2019-03-26T21:39:16.447Z,1025.15
2019-03-26T21:40:16.438Z,1025.14
2019-03-26T21:41:16.426Z,1025.14
2019-03-26T21:42:16.481Z,1025.14
2019-03-26T21:43:16.403Z,1025.10
2019-03-26T21:44:16.397Z,1025.10
2019-03-26T21:45:16.384Z,1025.18
2019-03-26T21:46:16.374Z,1025.21
2019-03-26T21:47:16.383Z,1025.18
2019-03-26T21:48:16.349Z,1025.16
2019-03-26T21:49:16.338Z,1025.15
2019-03-26T21:50:16.330Z,1025.18
2019-03-26T21:51:16.311Z,1025.18
2019-03-26T21:52:16.327Z,1025.15
2019-03-26T21:53:16.298Z,1025.14
2019-03-26T21:54:16.297Z,1025.12
2019-03-26T21:55:16.266Z,1025.12
2019-03-26T21:56:16.255Z,1025.12
2019-03-26T21:57:16.268Z,1025.12
2019-03-26T21:58:16.271Z,1025.15
2019-03-26T21:59:16.223Z,1025.18
2019-03-26T22:00:16.217Z,1025.22
2019-03-26T22:01:16.206Z,1025.19
2019-03-26T22:02:16.210Z,1025.26
2019-03-26T22:03:16.179Z,1025.23
2019-03-26T22:04:16.196Z,1025.29
2019-03-26T22:05:16.160Z,1025.29
2019-03-26T22:06:16.147Z,1025.30
2019-03-26T22:07:16.190Z,1025.28
2019-03-26T22:08:16.121Z,1025.33
2019-03-26T22:09:16.119Z,1025.31
2019-03-26T22:10:16.096Z,1025.33
2019-03-26T22:11:16.085Z,1025.39
2019-03-26T22:12:16.118Z,1025.35
2019-03-26T22:13:16.066Z,1025.39
2019-03-26T22:14:18.417Z,1025.39
2019-03-26T22:15:16.071Z,1025.36
2019-03-26T22:16:16.033Z,1025.36
2019-03-26T22:17:16.042Z,1025.39
2019-03-26T22:18:16.036Z,1025.38
2019-03-26T22:19:28.033Z,1025.43
2019-03-26T22:20:16.986Z,1025.39
2019-03-26T22:21:15.977Z,1025.37
2019-03-26T22:22:15.961Z,1025.38
2019-03-26T22:23:15.975Z,1025.41
2019-03-26T22:24:17.319Z,1025.37
2019-03-26T22:25:15.928Z,1025.38
2019-03-26T22:26:15.925Z,1025.36
2019-03-26T22:27:15.904Z,1025.41
2019-03-26T22:28:15.922Z,1025.33
2019-03-26T22:29:15.885Z,1025.38
2019-03-26T22:30:15.880Z,1025.36
2019-03-26T22:31:15.861Z,1025.40
2019-03-26T22:32:15.863Z,1025.39
2019-03-26T22:33:15.872Z,1025.32
2019-03-26T22:34:15.829Z,1025.39
2019-03-26T22:35:15.828Z,1025.36
2019-03-26T22:36:15.805Z,1025.39
2019-03-26T22:37:15.790Z,1025.41
2019-03-26T22:38:15.848Z,1025.33
2019-03-26T22:39:15.770Z,1025.37
2019-03-26T22:40:15.767Z,1025.34
2019-03-26T22:41:15.755Z,1025.39
2019-03-26T22:42:15.782Z,1025.37
2019-03-26T22:43:15.868Z,1025.40
2019-03-26T22:44:15.716Z,1025.40
2019-03-26T22:45:15.704Z,1025.41
2019-03-26T22:46:15.692Z,1025.40
2019-03-26T22:47:15.680Z,1025.40
2019-03-26T22:48:15.698Z,1025.41
2019-03-26T22:49:15.665Z,1025.43
2019-03-26T22:50:15.648Z,1025.34
2019-03-26T22:51:15.634Z,1025.33
2019-03-26T22:52:15.634Z,1025.35
2019-03-26T22:53:15.635Z,1025.42
2019-03-26T22:54:15.599Z,1025.45
2019-03-26T22:55:15.589Z,1025.48
2019-03-26T22:56:15.579Z,1025.47
2019-03-26T22:57:15.566Z,1025.52
2019-03-26T22:58:15.596Z,1025.55
2019-03-26T22:59:15.550Z,1025.45
2019-03-26T23:00:15.535Z,1025.39
2019-03-26T23:01:15.526Z,1025.39
2019-03-26T23:02:15.510Z,1025.37
2019-03-26T23:03:15.525Z,1025.39
2019-03-26T23:04:15.489Z,1025.36
2019-03-26T23:05:15.487Z,1025.35
2019-03-26T23:06:15.464Z,1025.40
2019-03-26T23:07:15.458Z,1025.43
2019-03-26T23:08:15.485Z,1025.41
2019-03-26T23:09:15.431Z,1025.41
2019-03-26T23:10:15.527Z,1025.35
2019-03-26T23:11:15.411Z,1025.29
2019-03-26T23:12:15.400Z,1025.34
2019-03-26T23:13:15.422Z,1025.26
2019-03-26T23:14:15.400Z,1025.27
2019-03-26T23:15:15.365Z,1025.31
2019-03-26T23:16:15.358Z,1025.36
2019-03-26T23:17:15.340Z,1025.37
2019-03-26T23:18:15.336Z,1025.34
2019-03-26T23:19:15.344Z,1025.39
2019-03-26T23:20:15.313Z,1025.37
2019-03-26T23:21:15.321Z,1025.39
2019-03-26T23:22:15.285Z,1025.40
2019-03-26T23:23:15.280Z,1025.35
2019-03-26T23:24:15.285Z,1025.37
2019-03-26T23:25:15.251Z,1025.37
2019-03-26T23:26:15.266Z,1025.43
2019-03-26T23:27:15.229Z,1025.40
2019-03-26T23:28:15.223Z,1025.38
2019-03-26T23:29:15.236Z,1025.42
2019-03-26T23:30:15.212Z,1025.40
2019-03-26T23:31:15.189Z,1025.41
2019-03-26T23:32:15.174Z,1025.39
2019-03-26T23:33:15.161Z,1025.34
2019-03-26T23:34:15.181Z,1025.33
2019-03-26T23:35:15.151Z,1025.39
2019-03-26T23:36:15.126Z,1025.37
2019-03-26T23:37:15.115Z,1025.38
2019-03-26T23:38:15.116Z,1025.29
2019-03-26T23:39:15.117Z,1025.32
2019-03-26T23:40:15.088Z,1025.28
2019-03-26T23:41:15.072Z,1025.28
2019-03-26T23:42:15.058Z,1025.28
2019-03-26T23:43:15.123Z,1025.30
2019-03-26T23:44:25.232Z,1025.26
2019-03-26T23:45:16.051Z,1025.29
2019-03-26T23:46:15.020Z,1025.30
2019-03-26T23:47:15.007Z,1025.28
2019-03-26T23:48:14.991Z,1025.31
2019-03-26T23:49:14.998Z,1025.28
2019-03-26T23:50:14.997Z,1025.28
2019-03-26T23:51:14.963Z,1025.27
2019-03-26T23:52:14.946Z,1025.24
2019-03-26T23:53:14.938Z,1025.24
2019-03-26T23:54:14.933Z,1025.26
2019-03-26T23:55:14.936Z,1025.25
2019-03-26T23:56:14.902Z,1025.34
2019-03-26T23:57:14.941Z,1025.31
2019-03-26T23:58:14.878Z,1025.34
2019-03-26T23:59:14.868Z,1025.32
